sensor_id;sensor_type;location;lat;lon;timestamp;temperature;humidity
46730;DHT22;32476;50.002;11.854;2023-06-22T00:02:22;16.40;99.90
46730;DHT22;32476;50.002;11.854;2023-06-22T00:04:48;16.40;99.90
46730;DHT22;32476;50.002;11.854;2023-06-22T00:07:14;16.40;99.90
46730;DHT22;32476;50.002;11.854;2023-06-22T00:09:42;16.40;99.90
46730;DHT22;32476;50.002;11.854;2023-06-22T00:12:08;16.40;99.90
46730;DHT22;32476;50.002;11.854;2023-06-22T00:14:34;16.40;99.90
46730;DHT22;32476;50.002;11.854;2023-06-22T00:17:01;16.40;99.90
46730;DHT22;32476;50.002;11.854;2023-06-22T00:19:27;16.40;99.90
46730;DHT22;32476;50.002;11.854;2023-06-22T00:21:53;16.30;99.90
46730;DHT22;32476;50.002;11.854;2023-06-22T00:24:21;16.30;99.90
46730;DHT22;32476;50.002;11.854;2023-06-22T00:26:48;16.30;99.90
46730;DHT22;32476;50.002;11.854;2023-06-22T00:29:14;16.30;99.90
46730;DHT22;32476;50.002;11.854;2023-06-22T00:31:42;16.30;99.90
46730;DHT22;32476;50.002;11.854;2023-06-22T00:34:08;16.30;99.90
46730;DHT22;32476;50.002;11.854;2023-06-22T00:36:35;16.30;99.90
46730;DHT22;32476;50.002;11.854;2023-06-22T00:39:03;16.20;99.90
46730;DHT22;32476;50.002;11.854;2023-06-22T00:41:29;16.20;99.90
46730;DHT22;32476;50.002;11.854;2023-06-22T00:43:55;16.20;99.90
46730;DHT22;32476;50.002;11.854;2023-06-22T00:46:23;16.10;99.90
46730;DHT22;32476;50.002;11.854;2023-06-22T00:48:50;16.20;99.90
46730;DHT22;32476;50.002;11.854;2023-06-22T00:51:17;16.20;99.90
46730;DHT22;32476;50.002;11.854;2023-06-22T00:53:44;16.20;99.90
46730;DHT22;32476;50.002;11.854;2023-06-22T00:56:11;16.10;99.90
46730;DHT22;32476;50.002;11.854;2023-06-22T00:58:38;16.20;99.90
46730;DHT22;32476;50.002;11.854;2023-06-22T01:01:08;16.10;99.90
46730;DHT22;32476;50.002;11.854;2023-06-22T01:03:34;16.00;99.90
46730;DHT22;32476;50.002;11.854;2023-06-22T01:06:07;16.00;99.90
46730;DHT22;32476;50.002;11.854;2023-06-22T01:08:49;16.00;99.90
46730;DHT22;32476;50.002;11.854;2023-06-22T01:11:26;15.90;99.90
46730;DHT22;32476;50.002;11.854;2023-06-22T01:14:12;15.90;99.90
46730;DHT22;32476;50.002;11.854;2023-06-22T01:16:44;15.80;99.90
46730;DHT22;32476;50.002;11.854;2023-06-22T01:19:20;15.80;99.90
46730;DHT22;32476;50.002;11.854;2023-06-22T01:21:58;15.80;99.90
46730;DHT22;32476;50.002;11.854;2023-06-22T01:24:44;15.90;99.90
46730;DHT22;32476;50.002;11.854;2023-06-22T01:27:36;16.00;99.90
46730;DHT22;32476;50.002;11.854;2023-06-22T01:30:13;16.00;99.90
46730;DHT22;32476;50.002;11.854;2023-06-22T01:32:42;15.90;99.90
46730;DHT22;32476;50.002;11.854;2023-06-22T01:35:10;16.00;99.90
46730;DHT22;32476;50.002;11.854;2023-06-22T01:37:38;15.90;99.90
46730;DHT22;32476;50.002;11.854;2023-06-22T01:40:08;15.90;99.90
46730;DHT22;32476;50.002;11.854;2023-06-22T01:42:36;16.00;99.90
46730;DHT22;32476;50.002;11.854;2023-06-22T01:45:04;16.00;99.90
46730;DHT22;32476;50.002;11.854;2023-06-22T01:47:31;16.00;99.90
46730;DHT22;32476;50.002;11.854;2023-06-22T01:49:57;16.10;99.90
46730;DHT22;32476;50.002;11.854;2023-06-22T01:52:25;16.00;99.90
46730;DHT22;32476;50.002;11.854;2023-06-22T01:54:51;16.00;99.90
46730;DHT22;32476;50.002;11.854;2023-06-22T01:57:17;16.00;99.90
46730;DHT22;32476;50.002;11.854;2023-06-22T01:59:52;16.00;99.90
46730;DHT22;32476;50.002;11.854;2023-06-22T02:02:20;15.90;99.90
46730;DHT22;32476;50.002;11.854;2023-06-22T02:04:59;15.80;99.90
46730;DHT22;32476;50.002;11.854;2023-06-22T02:07:39;15.80;99.90
46730;DHT22;32476;50.002;11.854;2023-06-22T02:10:10;15.90;99.90
46730;DHT22;32476;50.002;11.854;2023-06-22T02:12:39;15.90;99.90
46730;DHT22;32476;50.002;11.854;2023-06-22T02:15:07;15.80;99.90
46730;DHT22;32476;50.002;11.854;2023-06-22T02:17:35;15.90;99.90
46730;DHT22;32476;50.002;11.854;2023-06-22T02:20:02;16.00;99.90
46730;DHT22;32476;50.002;11.854;2023-06-22T02:22:35;16.10;99.90
46730;DHT22;32476;50.002;11.854;2023-06-22T02:25:01;16.00;99.90
46730;DHT22;32476;50.002;11.854;2023-06-22T02:27:28;15.90;99.90
46730;DHT22;32476;50.002;11.854;2023-06-22T02:29:55;15.80;99.90
46730;DHT22;32476;50.002;11.854;2023-06-22T02:32:21;15.70;99.90
46730;DHT22;32476;50.002;11.854;2023-06-22T02:34:47;15.90;99.90
46730;DHT22;32476;50.002;11.854;2023-06-22T02:37:15;15.80;99.90
46730;DHT22;32476;50.002;11.854;2023-06-22T02:39:41;15.70;99.90
46730;DHT22;32476;50.002;11.854;2023-06-22T02:42:07;15.70;99.90
46730;DHT22;32476;50.002;11.854;2023-06-22T02:44:35;15.70;99.90
46730;DHT22;32476;50.002;11.854;2023-06-22T02:47:00;15.80;99.90
46730;DHT22;32476;50.002;11.854;2023-06-22T02:49:26;15.80;99.90
46730;DHT22;32476;50.002;11.854;2023-06-22T02:51:54;15.80;99.90
46730;DHT22;32476;50.002;11.854;2023-06-22T02:54:20;15.90;99.90
46730;DHT22;32476;50.002;11.854;2023-06-22T02:56:46;15.90;99.90
46730;DHT22;32476;50.002;11.854;2023-06-22T02:59:15;15.90;99.90
46730;DHT22;32476;50.002;11.854;2023-06-22T03:01:41;16.00;99.90
46730;DHT22;32476;50.002;11.854;2023-06-22T03:04:08;16.00;99.90
46730;DHT22;32476;50.002;11.854;2023-06-22T03:06:36;16.10;99.90
46730;DHT22;32476;50.002;11.854;2023-06-22T03:09:03;16.00;99.90
46730;DHT22;32476;50.002;11.854;2023-06-22T03:11:31;15.90;99.90
46730;DHT22;32476;50.002;11.854;2023-06-22T03:14:00;15.80;99.90
46730;DHT22;32476;50.002;11.854;2023-06-22T03:16:26;15.80;99.90
46730;DHT22;32476;50.002;11.854;2023-06-22T03:18:53;15.80;99.90
46730;DHT22;32476;50.002;11.854;2023-06-22T03:21:23;15.80;99.90
46730;DHT22;32476;50.002;11.854;2023-06-22T03:23:49;15.80;99.90
46730;DHT22;32476;50.002;11.854;2023-06-22T03:26:17;15.90;99.90
46730;DHT22;32476;50.002;11.854;2023-06-22T03:28:45;15.90;99.90
46730;DHT22;32476;50.002;11.854;2023-06-22T03:31:11;16.00;99.90
46730;DHT22;32476;50.002;11.854;2023-06-22T03:33:37;15.90;99.90
46730;DHT22;32476;50.002;11.854;2023-06-22T03:36:05;15.80;99.90
46730;DHT22;32476;50.002;11.854;2023-06-22T03:38:31;16.10;99.90
46730;DHT22;32476;50.002;11.854;2023-06-22T03:40:57;16.30;99.90
46730;DHT22;32476;50.002;11.854;2023-06-22T03:43:25;16.60;99.90
46730;DHT22;32476;50.002;11.854;2023-06-22T03:45:51;16.70;99.90
46730;DHT22;32476;50.002;11.854;2023-06-22T03:48:17;16.90;99.90
46730;DHT22;32476;50.002;11.854;2023-06-22T03:50:44;17.00;99.90
46730;DHT22;32476;50.002;11.854;2023-06-22T03:53:10;17.10;99.90
46730;DHT22;32476;50.002;11.854;2023-06-22T03:55:36;17.40;99.90
46730;DHT22;32476;50.002;11.854;2023-06-22T03:58:03;17.50;99.90
46730;DHT22;32476;50.002;11.854;2023-06-22T04:00:34;17.70;99.90
46730;DHT22;32476;50.002;11.854;2023-06-22T04:03:00;17.70;99.90
46730;DHT22;32476;50.002;11.854;2023-06-22T04:05:27;17.80;99.90
46730;DHT22;32476;50.002;11.854;2023-06-22T04:07:53;17.70;99.90
46730;DHT22;32476;50.002;11.854;2023-06-22T04:10:19;17.80;99.90
46730;DHT22;32476;50.002;11.854;2023-06-22T04:12:50;17.70;99.90
46730;DHT22;32476;50.002;11.854;2023-06-22T04:15:20;17.60;99.90
46730;DHT22;32476;50.002;11.854;2023-06-22T04:17:48;17.50;99.90
46730;DHT22;32476;50.002;11.854;2023-06-22T04:20:14;17.40;99.90
46730;DHT22;32476;50.002;11.854;2023-06-22T04:22:41;17.40;99.90
46730;DHT22;32476;50.002;11.854;2023-06-22T04:25:08;17.40;99.90
46730;DHT22;32476;50.002;11.854;2023-06-22T04:27:34;17.40;99.90
46730;DHT22;32476;50.002;11.854;2023-06-22T04:30:07;17.40;99.90
46730;DHT22;32476;50.002;11.854;2023-06-22T04:32:35;17.40;99.90
46730;DHT22;32476;50.002;11.854;2023-06-22T04:35:05;17.40;99.90
46730;DHT22;32476;50.002;11.854;2023-06-22T04:37:32;17.50;99.90
46730;DHT22;32476;50.002;11.854;2023-06-22T04:40:00;17.70;99.90
46730;DHT22;32476;50.002;11.854;2023-06-22T04:42:26;17.80;99.90
46730;DHT22;32476;50.002;11.854;2023-06-22T04:44:53;17.80;99.90
46730;DHT22;32476;50.002;11.854;2023-06-22T04:47:21;17.80;99.90
46730;DHT22;32476;50.002;11.854;2023-06-22T04:49:46;17.70;99.90
46730;DHT22;32476;50.002;11.854;2023-06-22T04:52:13;17.80;99.90
46730;DHT22;32476;50.002;11.854;2023-06-22T04:54:44;18.00;99.90
46730;DHT22;32476;50.002;11.854;2023-06-22T04:57:13;18.30;99.90
46730;DHT22;32476;50.002;11.854;2023-06-22T04:59:40;18.50;99.90
46730;DHT22;32476;50.002;11.854;2023-06-22T05:02:08;18.60;99.90
46730;DHT22;32476;50.002;11.854;2023-06-22T05:04:35;18.80;99.90
46730;DHT22;32476;50.002;11.854;2023-06-22T05:07:04;18.90;99.90
46730;DHT22;32476;50.002;11.854;2023-06-22T05:09:32;19.00;99.90
46730;DHT22;32476;50.002;11.854;2023-06-22T05:11:59;19.00;99.90
46730;DHT22;32476;50.002;11.854;2023-06-22T05:14:28;19.10;99.90
46730;DHT22;32476;50.002;11.854;2023-06-22T05:16:56;19.10;99.90
46730;DHT22;32476;50.002;11.854;2023-06-22T05:19:25;19.10;99.90
46730;DHT22;32476;50.002;11.854;2023-06-22T05:21:58;19.10;99.90
46730;DHT22;32476;50.002;11.854;2023-06-22T05:24:24;19.20;99.90
46730;DHT22;32476;50.002;11.854;2023-06-22T05:26:50;19.20;99.90
46730;DHT22;32476;50.002;11.854;2023-06-22T05:29:17;19.20;99.90
46730;DHT22;32476;50.002;11.854;2023-06-22T05:31:43;19.20;99.90
46730;DHT22;32476;50.002;11.854;2023-06-22T05:34:09;19.20;99.90
46730;DHT22;32476;50.002;11.854;2023-06-22T05:36:36;19.20;99.90
46730;DHT22;32476;50.002;11.854;2023-06-22T05:39:12;19.20;99.90
46730;DHT22;32476;50.002;11.854;2023-06-22T05:41:44;19.20;99.90
46730;DHT22;32476;50.002;11.854;2023-06-22T05:44:10;19.20;99.90
46730;DHT22;32476;50.002;11.854;2023-06-22T05:46:37;19.20;99.90
46730;DHT22;32476;50.002;11.854;2023-06-22T05:49:06;19.20;99.90
46730;DHT22;32476;50.002;11.854;2023-06-22T05:51:32;19.20;99.90
46730;DHT22;32476;50.002;11.854;2023-06-22T05:53:58;19.30;99.90
46730;DHT22;32476;50.002;11.854;2023-06-22T05:56:25;19.30;99.90
46730;DHT22;32476;50.002;11.854;2023-06-22T05:58:51;19.30;99.90
46730;DHT22;32476;50.002;11.854;2023-06-22T06:01:17;19.30;99.90
46730;DHT22;32476;50.002;11.854;2023-06-22T06:03:44;19.30;99.90
46730;DHT22;32476;50.002;11.854;2023-06-22T06:06:10;19.30;99.90
46730;DHT22;32476;50.002;11.854;2023-06-22T06:08:37;19.50;99.90
46730;DHT22;32476;50.002;11.854;2023-06-22T06:11:05;19.50;99.90
46730;DHT22;32476;50.002;11.854;2023-06-22T06:13:31;19.70;99.90
46730;DHT22;32476;50.002;11.854;2023-06-22T06:15:57;19.80;99.90
46730;DHT22;32476;50.002;11.854;2023-06-22T06:18:26;19.90;99.90
46730;DHT22;32476;50.002;11.854;2023-06-22T06:20:52;20.00;99.90
46730;DHT22;32476;50.002;11.854;2023-06-22T06:23:18;20.10;99.90
46730;DHT22;32476;50.002;11.854;2023-06-22T06:25:46;20.20;99.90
46730;DHT22;32476;50.002;11.854;2023-06-22T06:28:12;20.20;99.90
46730;DHT22;32476;50.002;11.854;2023-06-22T06:30:38;20.30;99.90
46730;DHT22;32476;50.002;11.854;2023-06-22T06:33:05;20.40;99.90
46730;DHT22;32476;50.002;11.854;2023-06-22T06:35:34;20.50;99.90
46730;DHT22;32476;50.002;11.854;2023-06-22T06:38:00;20.70;99.90
46730;DHT22;32476;50.002;11.854;2023-06-22T06:40:28;20.70;99.90
46730;DHT22;32476;50.002;11.854;2023-06-22T06:42:54;20.80;99.90
46730;DHT22;32476;50.002;11.854;2023-06-22T06:45:21;20.80;99.90
46730;DHT22;32476;50.002;11.854;2023-06-22T06:47:51;21.00;99.90
46730;DHT22;32476;50.002;11.854;2023-06-22T06:50:18;21.00;99.90
46730;DHT22;32476;50.002;11.854;2023-06-22T06:52:44;21.10;99.90
46730;DHT22;32476;50.002;11.854;2023-06-22T06:55:12;21.20;99.90
46730;DHT22;32476;50.002;11.854;2023-06-22T06:57:40;21.30;99.90
46730;DHT22;32476;50.002;11.854;2023-06-22T07:00:09;21.40;99.90
46730;DHT22;32476;50.002;11.854;2023-06-22T07:02:48;21.50;99.90
46730;DHT22;32476;50.002;11.854;2023-06-22T07:05:14;21.70;99.90
46730;DHT22;32476;50.002;11.854;2023-06-22T07:07:41;21.80;99.90
46730;DHT22;32476;50.002;11.854;2023-06-22T07:10:08;22.00;99.90
46730;DHT22;32476;50.002;11.854;2023-06-22T07:12:34;22.20;99.90
46730;DHT22;32476;50.002;11.854;2023-06-22T07:15:06;22.30;99.90
46730;DHT22;32476;50.002;11.854;2023-06-22T07:17:34;22.60;99.90
46730;DHT22;32476;50.002;11.854;2023-06-22T07:20:03;22.70;99.90
46730;DHT22;32476;50.002;11.854;2023-06-22T07:22:40;22.90;99.90
46730;DHT22;32476;50.002;11.854;2023-06-22T07:25:11;23.10;99.90
46730;DHT22;32476;50.002;11.854;2023-06-22T07:27:56;23.30;99.90
46730;DHT22;32476;50.002;11.854;2023-06-22T07:30:24;23.60;99.90
46730;DHT22;32476;50.002;11.854;2023-06-22T07:32:50;23.80;99.90
46730;DHT22;32476;50.002;11.854;2023-06-22T07:35:16;24.00;99.90
46730;DHT22;32476;50.002;11.854;2023-06-22T07:37:44;24.00;99.90
46730;DHT22;32476;50.002;11.854;2023-06-22T07:40:11;24.10;99.90
46730;DHT22;32476;50.002;11.854;2023-06-22T07:42:37;24.40;99.90
46730;DHT22;32476;50.002;11.854;2023-06-22T07:45:06;24.60;99.90
46730;DHT22;32476;50.002;11.854;2023-06-22T07:47:34;24.80;99.90
46730;DHT22;32476;50.002;11.854;2023-06-22T07:50:01;25.00;99.90
46730;DHT22;32476;50.002;11.854;2023-06-22T07:52:30;24.90;99.90
46730;DHT22;32476;50.002;11.854;2023-06-22T07:54:56;24.80;99.90
46730;DHT22;32476;50.002;11.854;2023-06-22T07:57:22;24.90;99.90
46730;DHT22;32476;50.002;11.854;2023-06-22T07:59:50;25.20;99.90
46730;DHT22;32476;50.002;11.854;2023-06-22T08:02:15;25.10;99.90
46730;DHT22;32476;50.002;11.854;2023-06-22T08:04:48;25.00;99.90
46730;DHT22;32476;50.002;11.854;2023-06-22T08:07:16;25.40;99.90
46730;DHT22;32476;50.002;11.854;2023-06-22T08:09:47;25.30;99.90
46730;DHT22;32476;50.002;11.854;2023-06-22T08:12:16;25.60;99.90
46730;DHT22;32476;50.002;11.854;2023-06-22T08:14:42;25.70;99.90
46730;DHT22;32476;50.002;11.854;2023-06-22T08:17:12;25.70;99.90
46730;DHT22;32476;50.002;11.854;2023-06-22T08:19:40;25.60;99.90
46730;DHT22;32476;50.002;11.854;2023-06-22T08:22:06;25.90;99.90
46730;DHT22;32476;50.002;11.854;2023-06-22T08:24:32;25.90;99.90
46730;DHT22;32476;50.002;11.854;2023-06-22T08:27:00;26.20;99.90
46730;DHT22;32476;50.002;11.854;2023-06-22T08:29:26;26.40;99.90
46730;DHT22;32476;50.002;11.854;2023-06-22T08:31:52;26.80;99.90
46730;DHT22;32476;50.002;11.854;2023-06-22T08:34:19;26.80;99.90
46730;DHT22;32476;50.002;11.854;2023-06-22T08:36:47;26.80;99.90
46730;DHT22;32476;50.002;11.854;2023-06-22T08:39:19;27.20;99.90
46730;DHT22;32476;50.002;11.854;2023-06-22T08:41:49;27.50;99.90
46730;DHT22;32476;50.002;11.854;2023-06-22T08:44:19;27.40;98.70
46730;DHT22;32476;50.002;11.854;2023-06-22T08:46:46;27.30;98.70
46730;DHT22;32476;50.002;11.854;2023-06-22T08:49:13;27.40;98.60
46730;DHT22;32476;50.002;11.854;2023-06-22T08:51:38;27.70;98.20
46730;DHT22;32476;50.002;11.854;2023-06-22T08:54:06;28.00;97.80
46730;DHT22;32476;50.002;11.854;2023-06-22T08:56:32;27.90;97.50
46730;DHT22;32476;50.002;11.854;2023-06-22T08:58:58;27.60;97.10
46730;DHT22;32476;50.002;11.854;2023-06-22T09:01:25;27.80;97.60
46730;DHT22;32476;50.002;11.854;2023-06-22T09:03:51;28.10;96.70
46730;DHT22;32476;50.002;11.854;2023-06-22T09:06:21;28.40;97.40
46730;DHT22;32476;50.002;11.854;2023-06-22T09:08:48;28.40;96.10
46730;DHT22;32476;50.002;11.854;2023-06-22T09:11:14;28.80;96.40
46730;DHT22;32476;50.002;11.854;2023-06-22T09:13:41;28.90;95.20
46730;DHT22;32476;50.002;11.854;2023-06-22T09:16:08;28.70;95.00
46730;DHT22;32476;50.002;11.854;2023-06-22T09:18:34;28.70;96.10
46730;DHT22;32476;50.002;11.854;2023-06-22T09:21:01;28.30;93.70
46730;DHT22;32476;50.002;11.854;2023-06-22T09:23:29;28.10;94.10
46730;DHT22;32476;50.002;11.854;2023-06-22T09:25:55;28.20;94.30
46730;DHT22;32476;50.002;11.854;2023-06-22T09:28:21;28.70;95.50
46730;DHT22;32476;50.002;11.854;2023-06-22T09:30:48;28.70;94.00
46730;DHT22;32476;50.002;11.854;2023-06-22T09:33:14;29.10;95.10
46730;DHT22;32476;50.002;11.854;2023-06-22T09:35:40;29.30;92.60
46730;DHT22;32476;50.002;11.854;2023-06-22T09:38:07;29.20;93.10
46730;DHT22;32476;50.002;11.854;2023-06-22T09:40:33;29.10;92.60
46730;DHT22;32476;50.002;11.854;2023-06-22T09:43:05;29.30;92.50
46730;DHT22;32476;50.002;11.854;2023-06-22T09:45:33;29.00;91.50
46730;DHT22;32476;50.002;11.854;2023-06-22T09:47:59;29.00;92.60
46730;DHT22;32476;50.002;11.854;2023-06-22T09:50:25;29.60;92.60
46730;DHT22;32476;50.002;11.854;2023-06-22T09:52:52;29.50;91.80
46730;DHT22;32476;50.002;11.854;2023-06-22T09:55:23;29.30;91.60
46730;DHT22;32476;50.002;11.854;2023-06-22T09:57:49;29.90;92.30
46730;DHT22;32476;50.002;11.854;2023-06-22T10:00:17;30.20;90.50
46730;DHT22;32476;50.002;11.854;2023-06-22T10:02:46;29.70;90.60
46730;DHT22;32476;50.002;11.854;2023-06-22T10:05:12;29.50;89.40
46730;DHT22;32476;50.002;11.854;2023-06-22T10:07:40;29.70;88.60
46730;DHT22;32476;50.002;11.854;2023-06-22T10:10:10;29.80;87.60
46730;DHT22;32476;50.002;11.854;2023-06-22T10:12:36;29.90;89.10
46730;DHT22;32476;50.002;11.854;2023-06-22T10:15:04;30.20;87.00
46730;DHT22;32476;50.002;11.854;2023-06-22T10:17:30;30.30;87.60
46730;DHT22;32476;50.002;11.854;2023-06-22T10:19:56;30.70;90.30
46730;DHT22;32476;50.002;11.854;2023-06-22T10:22:23;30.70;85.80
46730;DHT22;32476;50.002;11.854;2023-06-22T10:24:49;30.80;85.10
46730;DHT22;32476;50.002;11.854;2023-06-22T10:27:15;30.70;85.50
46730;DHT22;32476;50.002;11.854;2023-06-22T10:29:43;30.80;83.70
46730;DHT22;32476;50.002;11.854;2023-06-22T10:32:09;30.40;84.30
46730;DHT22;32476;50.002;11.854;2023-06-22T10:34:35;30.80;84.80
46730;DHT22;32476;50.002;11.854;2023-06-22T10:37:03;30.50;81.30
46730;DHT22;32476;50.002;11.854;2023-06-22T10:39:29;30.50;84.10
46730;DHT22;32476;50.002;11.854;2023-06-22T10:41:55;31.20;81.80
46730;DHT22;32476;50.002;11.854;2023-06-22T10:44:23;32.00;84.10
46730;DHT22;32476;50.002;11.854;2023-06-22T10:46:49;31.40;78.80
46730;DHT22;32476;50.002;11.854;2023-06-22T10:49:15;31.70;82.00
46730;DHT22;32476;50.002;11.854;2023-06-22T10:51:43;31.80;79.30
46730;DHT22;32476;50.002;11.854;2023-06-22T10:54:08;31.80;79.50
46730;DHT22;32476;50.002;11.854;2023-06-22T10:56:34;31.90;77.90
46730;DHT22;32476;50.002;11.854;2023-06-22T10:59:02;31.40;77.40
46730;DHT22;32476;50.002;11.854;2023-06-22T11:01:28;31.50;78.20
46730;DHT22;32476;50.002;11.854;2023-06-22T11:03:54;31.60;77.50
46730;DHT22;32476;50.002;11.854;2023-06-22T11:06:21;31.40;77.80
46730;DHT22;32476;50.002;11.854;2023-06-22T11:08:47;31.60;80.30
46730;DHT22;32476;50.002;11.854;2023-06-22T11:11:13;31.30;78.60
46730;DHT22;32476;50.002;11.854;2023-06-22T11:13:40;31.80;77.80
46730;DHT22;32476;50.002;11.854;2023-06-22T11:16:06;31.40;77.10
46730;DHT22;32476;50.002;11.854;2023-06-22T11:18:32;31.30;77.60
46730;DHT22;32476;50.002;11.854;2023-06-22T11:21:00;32.00;76.40
46730;DHT22;32476;50.002;11.854;2023-06-22T11:23:26;31.90;76.10
46730;DHT22;32476;50.002;11.854;2023-06-22T11:25:54;32.50;76.50
46730;DHT22;32476;50.002;11.854;2023-06-22T11:28:21;32.20;73.80
46730;DHT22;32476;50.002;11.854;2023-06-22T11:30:47;32.00;73.00
46730;DHT22;32476;50.002;11.854;2023-06-22T11:33:13;32.40;75.50
46730;DHT22;32476;50.002;11.854;2023-06-22T11:35:41;32.50;72.00
46730;DHT22;32476;50.002;11.854;2023-06-22T11:38:07;31.80;74.80
46730;DHT22;32476;50.002;11.854;2023-06-22T11:40:33;32.60;72.50
46730;DHT22;32476;50.002;11.854;2023-06-22T11:43:00;32.50;71.00
46730;DHT22;32476;50.002;11.854;2023-06-22T11:45:26;32.50;70.80
46730;DHT22;32476;50.002;11.854;2023-06-22T11:47:52;32.50;69.80
46730;DHT22;32476;50.002;11.854;2023-06-22T11:50:20;32.50;70.40
46730;DHT22;32476;50.002;11.854;2023-06-22T11:52:46;32.30;69.70
46730;DHT22;32476;50.002;11.854;2023-06-22T11:55:12;32.90;68.70
46730;DHT22;32476;50.002;11.854;2023-06-22T11:57:55;33.20;69.70
46730;DHT22;32476;50.002;11.854;2023-06-22T12:00:25;33.40;67.70
46730;DHT22;32476;50.002;11.854;2023-06-22T12:02:56;33.40;67.20
46730;DHT22;32476;50.002;11.854;2023-06-22T12:05:22;32.70;69.60
46730;DHT22;32476;50.002;11.854;2023-06-22T12:07:49;33.20;71.20
46730;DHT22;32476;50.002;11.854;2023-06-22T12:10:18;33.10;67.30
46730;DHT22;32476;50.002;11.854;2023-06-22T12:12:44;33.50;68.50
46730;DHT22;32476;50.002;11.854;2023-06-22T12:15:11;33.60;67.80
46730;DHT22;32476;50.002;11.854;2023-06-22T12:17:38;32.90;67.30
46730;DHT22;32476;50.002;11.854;2023-06-22T12:20:05;33.10;67.30
46730;DHT22;32476;50.002;11.854;2023-06-22T12:22:33;33.20;66.80
46730;DHT22;32476;50.002;11.854;2023-06-22T12:25:01;33.80;69.70
46730;DHT22;32476;50.002;11.854;2023-06-22T12:27:27;34.10;65.80
46730;DHT22;32476;50.002;11.854;2023-06-22T12:29:53;33.70;66.80
46730;DHT22;32476;50.002;11.854;2023-06-22T12:32:21;33.60;66.40
46730;DHT22;32476;50.002;11.854;2023-06-22T12:34:47;33.10;67.70
46730;DHT22;32476;50.002;11.854;2023-06-22T12:37:13;33.50;70.50
46730;DHT22;32476;50.002;11.854;2023-06-22T12:39:41;34.10;67.40
46730;DHT22;32476;50.002;11.854;2023-06-22T12:42:07;34.00;66.30
46730;DHT22;32476;50.002;11.854;2023-06-22T12:44:35;34.20;68.30
46730;DHT22;32476;50.002;11.854;2023-06-22T12:47:02;34.50;64.60
46730;DHT22;32476;50.002;11.854;2023-06-22T12:49:28;34.50;66.70
46730;DHT22;32476;50.002;11.854;2023-06-22T12:51:54;33.90;65.20
46730;DHT22;32476;50.002;11.854;2023-06-22T12:54:22;33.30;64.40
46730;DHT22;32476;50.002;11.854;2023-06-22T12:56:49;33.00;66.30
46730;DHT22;32476;50.002;11.854;2023-06-22T12:59:16;33.30;66.00
46730;DHT22;32476;50.002;11.854;2023-06-22T13:01:44;33.60;67.10
46730;DHT22;32476;50.002;11.854;2023-06-22T13:04:11;33.80;66.70
46730;DHT22;32476;50.002;11.854;2023-06-22T13:06:43;34.00;64.90
46730;DHT22;32476;50.002;11.854;2023-06-22T13:09:15;33.90;64.30
46730;DHT22;32476;50.002;11.854;2023-06-22T13:11:42;33.80;65.50
46730;DHT22;32476;50.002;11.854;2023-06-22T13:14:08;33.90;64.20
46730;DHT22;32476;50.002;11.854;2023-06-22T13:16:36;34.00;63.90
46730;DHT22;32476;50.002;11.854;2023-06-22T13:19:02;33.90;64.40
46730;DHT22;32476;50.002;11.854;2023-06-22T13:21:30;34.10;63.90
46730;DHT22;32476;50.002;11.854;2023-06-22T13:23:57;34.50;63.90
46730;DHT22;32476;50.002;11.854;2023-06-22T13:26:24;34.60;64.20
46730;DHT22;32476;50.002;11.854;2023-06-22T13:28:50;34.50;62.90
46730;DHT22;32476;50.002;11.854;2023-06-22T13:31:17;34.20;63.50
46730;DHT22;32476;50.002;11.854;2023-06-22T13:33:43;33.80;63.20
46730;DHT22;32476;50.002;11.854;2023-06-22T13:36:11;33.70;63.20
46730;DHT22;32476;50.002;11.854;2023-06-22T13:38:39;33.60;63.50
46730;DHT22;32476;50.002;11.854;2023-06-22T13:41:05;33.60;63.00
46730;DHT22;32476;50.002;11.854;2023-06-22T13:43:32;33.50;63.60
46730;DHT22;32476;50.002;11.854;2023-06-22T13:45:59;33.40;64.00
46730;DHT22;32476;50.002;11.854;2023-06-22T13:48:25;33.30;62.60
46730;DHT22;32476;50.002;11.854;2023-06-22T13:50:52;33.70;63.00
46730;DHT22;32476;50.002;11.854;2023-06-22T13:53:19;33.70;62.80
46730;DHT22;32476;50.002;11.854;2023-06-22T13:55:45;34.00;63.10
46730;DHT22;32476;50.002;11.854;2023-06-22T13:58:13;33.50;63.00
46730;DHT22;32476;50.002;11.854;2023-06-22T14:00:40;33.00;64.00
46730;DHT22;32476;50.002;11.854;2023-06-22T14:03:06;33.10;64.50
46730;DHT22;32476;50.002;11.854;2023-06-22T14:05:32;32.70;64.20
46730;DHT22;32476;50.002;11.854;2023-06-22T14:08:00;32.40;66.20
46730;DHT22;32476;50.002;11.854;2023-06-22T14:10:26;31.80;65.70
46730;DHT22;32476;50.002;11.854;2023-06-22T14:12:52;31.80;66.20
46730;DHT22;32476;50.002;11.854;2023-06-22T14:15:20;32.10;67.10
46730;DHT22;32476;50.002;11.854;2023-06-22T14:17:46;32.10;66.50
46730;DHT22;32476;50.002;11.854;2023-06-22T14:20:12;32.20;65.00
46730;DHT22;32476;50.002;11.854;2023-06-22T14:22:39;32.40;66.00
46730;DHT22;32476;50.002;11.854;2023-06-22T14:25:06;32.60;66.80
46730;DHT22;32476;50.002;11.854;2023-06-22T14:27:32;32.80;66.50
46730;DHT22;32476;50.002;11.854;2023-06-22T14:29:59;33.00;63.40
46730;DHT22;32476;50.002;11.854;2023-06-22T14:32:27;33.00;63.90
46730;DHT22;32476;50.002;11.854;2023-06-22T14:34:55;33.40;63.50
46730;DHT22;32476;50.002;11.854;2023-06-22T14:37:22;33.90;62.50
46730;DHT22;32476;50.002;11.854;2023-06-22T14:39:48;33.80;62.70
46730;DHT22;32476;50.002;11.854;2023-06-22T14:42:14;33.60;62.20
46730;DHT22;32476;50.002;11.854;2023-06-22T14:44:42;33.40;62.20
46730;DHT22;32476;50.002;11.854;2023-06-22T14:47:08;33.40;62.90
46730;DHT22;32476;50.002;11.854;2023-06-22T14:49:34;33.80;63.20
46730;DHT22;32476;50.002;11.854;2023-06-22T14:52:03;33.70;62.10
46730;DHT22;32476;50.002;11.854;2023-06-22T14:54:29;33.80;61.80
46730;DHT22;32476;50.002;11.854;2023-06-22T14:56:55;33.60;62.60
46730;DHT22;32476;50.002;11.854;2023-06-22T14:59:23;33.70;62.40
46730;DHT22;32476;50.002;11.854;2023-06-22T15:01:48;33.00;62.20
46730;DHT22;32476;50.002;11.854;2023-06-22T15:04:15;33.10;63.20
46730;DHT22;32476;50.002;11.854;2023-06-22T15:06:42;33.30;63.80
46730;DHT22;32476;50.002;11.854;2023-06-22T15:09:09;33.10;62.40
46730;DHT22;32476;50.002;11.854;2023-06-22T15:11:35;33.40;64.30
46730;DHT22;32476;50.002;11.854;2023-06-22T15:14:03;33.40;63.00
46730;DHT22;32476;50.002;11.854;2023-06-22T15:16:29;33.40;63.20
46730;DHT22;32476;50.002;11.854;2023-06-22T15:18:55;33.60;62.40